Time;durP1;ratioP1;P1;durP2;ratioP2;P2;SDS_P1;SDS_P2;PMS_P1;PMS_P2;Temp;Humidity;BMP_temperature;BMP_pressure;BME280_temperature;BME280_humidity;BME280_pressure;Samples;Min_cycle;Max_cycle;Signal;HPM_P1;HPM_P2
2021/08/20 00:01:37;6927.00;0.02;12.62;0.00;0.00;0.62;;;;;24.20;1.00;;;;;;2275502;61;1140;-85
2021/08/20 00:04:06;21310.00;0.07;37.54;0.00;0.00;0.62;;;;;24.00;1.00;;;;;;2275268;61;1398;-85
2021/08/20 00:06:33;121188.00;0.40;210.13;0.00;0.00;0.62;;;;;23.70;1.00;;;;;;2274118;61;1269;-86
2021/08/20 00:09:01;0.00;0.00;0.62;0.00;0.00;0.62;;;;;23.30;1.00;;;;;;2275024;61;1092;-85
2021/08/20 00:11:27;0.00;0.00;0.62;0.00;0.00;0.62;;;;;23.50;1.00;;;;;;2275400;61;1163;-85
2021/08/20 00:13:54;5453.00;0.02;10.07;0.00;0.00;0.62;;;;;23.80;1.00;;;;;;2274879;61;1468;-85
2021/08/20 00:16:21;0.00;0.00;0.62;0.00;0.00;0.62;;;;;23.90;1.00;;;;;;2275209;61;1187;-85
2021/08/20 00:18:48;0.00;0.00;0.62;0.00;0.00;0.62;;;;;23.80;1.00;;;;;;2274947;61;2008;-85
2021/08/20 00:21:16;0.00;0.00;0.62;0.00;0.00;0.62;;;;;23.60;1.00;;;;;;2275587;61;1246;-85
2021/08/20 00:23:43;51293.00;0.17;89.42;0.00;0.00;0.62;;;;;23.70;1.00;;;;;;2275670;61;1416;-85
2021/08/20 00:26:10;49578.00;0.17;86.46;0.00;0.00;0.62;;;;;23.80;1.00;;;;;;2275430;61;1246;-85
2021/08/20 00:28:37;0.00;0.00;0.62;0.00;0.00;0.62;;;;;23.70;1.00;;;;;;2274804;61;1413;-85
2021/08/20 00:31:04;0.00;0.00;0.62;0.00;0.00;0.62;;;;;23.40;1.00;;;;;;2270745;61;1270;-84
2021/08/20 00:33:32;133682.00;0.45;231.68;67645.00;0.23;117.69;;;;;23.50;1.00;;;;;;2274410;61;1339;-85
2021/08/20 00:36:00;111364.00;0.37;193.18;45460.00;0.15;79.33;;;;;23.50;1.00;;;;;;2274796;61;1235;-86
2021/08/20 00:38:28;0.00;0.00;0.62;0.00;0.00;0.62;;;;;23.40;1.00;;;;;;2275365;61;2000;-85
2021/08/20 00:40:55;74093.00;0.25;128.83;0.00;0.00;0.62;;;;;23.40;1.00;;;;;;2275062;61;1191;-85
2021/08/20 00:43:25;0.00;0.00;0.62;0.00;0.00;0.62;;;;;23.30;1.00;;;;;;2275228;61;1277;-85
2021/08/20 00:45:56;0.00;0.00;0.62;0.00;0.00;0.62;;;;;23.40;1.00;;;;;;2275175;61;1174;-85
2021/08/20 00:48:23;0.00;0.00;0.62;0.00;0.00;0.62;;;;;23.50;1.00;;;;;;2275249;61;1263;-85
2021/08/20 00:51:01;0.00;0.00;0.62;0.00;0.00;0.62;;;;;23.30;1.00;;;;;;2275137;61;1267;-85
2021/08/20 00:53:31;146393.00;0.49;253.59;0.00;0.00;0.62;;;;;22.90;1.00;;;;;;2275260;61;1457;-85
2021/08/20 00:56:01;254779.00;0.85;440.17;69699.00;0.23;121.24;;;;;22.90;1.00;;;;;;2275511;61;1156;-85
2021/08/20 00:58:30;164554.00;0.55;284.89;72213.00;0.24;125.58;;;;;22.90;1.00;;;;;;2275202;61;1927;-85
2021/08/20 01:00:58;177694.00;0.59;307.52;80269.00;0.27;139.50;;;;;22.80;1.00;;;;;;2274286;61;1175;-85
2021/08/20 01:03:25;158986.00;0.53;275.29;56581.00;0.19;98.57;;;;;22.70;1.00;;;;;;2274702;61;1457;-85
2021/08/20 01:05:53;167841.00;0.56;290.55;67486.00;0.22;117.42;;;;;22.40;1.00;;;;;;2275149;61;1139;-85
2021/08/20 01:08:21;258672.00;0.86;446.86;76219.00;0.25;132.51;;;;;22.50;1.00;;;;;;2274799;61;1235;-84
2021/08/20 01:10:50;164657.00;0.55;285.06;69782.00;0.23;121.38;;;;;22.60;1.00;;;;;;2274512;61;1205;-85
2021/08/20 01:13:17;165877.00;0.55;287.16;67389.00;0.22;117.25;;;;;22.70;1.00;;;;;;2274859;61;1354;-85
2021/08/20 01:15:44;165702.00;0.55;286.86;67309.00;0.22;117.11;;;;;22.80;1.00;;;;;;2274672;61;1155;-86
2021/08/20 01:18:12;165244.00;0.55;286.07;68885.00;0.23;119.83;;;;;22.90;1.00;;;;;;2274638;61;1944;-86
2021/08/20 01:20:39;201858.00;0.67;349.12;69638.00;0.23;121.13;;;;;23.00;1.00;;;;;;2274908;61;1098;-86
2021/08/20 01:23:08;180155.00;0.60;311.76;74801.00;0.25;130.06;;;;;23.20;1.00;;;;;;2270689;61;1410;-86
2021/08/20 01:25:36;331157.00;1.10;571.47;67038.00;0.22;116.64;;;;;23.20;1.00;;;;;;2274303;61;1227;-86
2021/08/20 01:28:08;230182.00;0.77;397.86;69094.00;0.23;120.19;;;;;22.90;1.00;;;;;;2270286;61;1232;-85
2021/08/20 01:30:35;163549.00;0.55;283.15;70000.00;0.23;121.76;;;;;22.80;1.00;;;;;;2274274;61;1136;-86
2021/08/20 01:33:02;168088.00;0.56;290.97;76484.00;0.25;132.96;;;;;23.10;1.00;;;;;;2274306;61;1671;-85
2021/08/20 01:35:29;232029.00;0.77;401.04;70292.00;0.23;122.26;;;;;23.30;1.00;;;;;;2275065;61;1108;-86
2021/08/20 01:37:57;191168.00;0.64;330.72;66384.00;0.22;115.51;;;;;23.50;1.00;;;;;;2274644;61;2026;-86
2021/08/20 01:40:24;258853.00;0.86;447.18;77252.00;0.26;134.29;;;;;23.70;1.00;;;;;;2274985;61;1180;-86
2021/08/20 01:42:52;167072.00;0.56;289.22;68147.00;0.23;118.56;;;;;23.40;1.00;;;;;;2274696;61;1366;-86
2021/08/20 01:45:19;165634.00;0.55;286.75;65503.00;0.22;113.99;;;;;23.20;1.00;;;;;;2277353;61;1116;-86
2021/08/20 01:47:47;0.00;0.00;0.62;0.00;0.00;0.62;;;;;23.10;1.00;;;;;;2279428;61;1120;-87
2021/08/20 01:50:14;219986.00;0.73;380.32;69852.00;0.23;121.50;;;;;23.10;1.00;;;;;;2279275;61;1174;-85
2021/08/20 01:52:41;0.00;0.00;0.62;0.00;0.00;0.62;;;;;23.30;1.00;;;;;;2276060;61;1431;-85
2021/08/20 01:55:11;0.00;0.00;0.62;0.00;0.00;0.62;;;;;23.20;1.00;;;;;;2278674;61;1070;-87
2021/08/20 01:57:40;0.00;0.00;0.62;0.00;0.00;0.62;;;;;23.20;1.00;;;;;;2280585;61;957;-87
2021/08/20 02:00:10;0.00;0.00;0.62;0.00;0.00;0.62;;;;;23.10;1.00;;;;;;2277493;61;1920;-85
2021/08/20 02:02:37;172177.00;0.57;298.02;589.00;0.00;1.64;;;;;23.00;1.00;;;;;;2275904;61;1470;-86
2021/08/20 02:05:06;0.00;0.00;0.62;0.00;0.00;0.62;;;;;23.10;1.00;;;;;;2276449;61;1085;-86
2021/08/20 02:07:36;0.00;0.00;0.62;0.00;0.00;0.62;;;;;22.90;1.00;;;;;;2275916;61;1116;-86
2021/08/20 02:10:04;0.00;0.00;0.62;0.00;0.00;0.62;;;;;22.90;1.00;;;;;;2275375;61;1228;-86
2021/08/20 02:12:31;0.00;0.00;0.62;0.00;0.00;0.62;;;;;23.20;1.00;;;;;;2275592;61;1442;-86
2021/08/20 02:14:58;37776.00;0.13;66.04;0.00;0.00;0.62;;;;;23.30;1.00;;;;;;2271476;61;1073;-86
2021/08/20 02:17:26;53357.00;0.18;92.99;0.00;0.00;0.62;;;;;23.20;1.00;;;;;;2276037;61;1263;-86
2021/08/20 02:19:53;0.00;0.00;0.62;0.00;0.00;0.62;;;;;23.20;1.00;;;;;;2276044;61;2040;-86
2021/08/20 02:22:20;0.00;0.00;0.62;0.00;0.00;0.62;;;;;23.40;1.00;;;;;;2276229;61;1368;-85
2021/08/20 02:24:49;0.00;0.00;0.62;0.00;0.00;0.62;;;;;23.40;1.00;;;;;;2275930;61;1219;-86
2021/08/20 02:27:16;0.00;0.00;0.62;0.00;0.00;0.62;;;;;23.10;1.00;;;;;;2275325;61;1069;-86
2021/08/20 02:29:42;0.00;0.00;0.62;0.00;0.00;0.62;;;;;22.90;1.00;;;;;;2275746;61;1208;-86
2021/08/20 02:32:09;141626.00;0.47;245.37;0.00;0.00;0.62;;;;;23.10;1.00;;;;;;2276112;61;1336;-86
2021/08/20 02:34:38;20782.00;0.07;36.62;0.00;0.00;0.62;;;;;23.10;1.00;;;;;;2276130;61;1167;-86
2021/08/20 02:37:05;0.00;0.00;0.62;0.00;0.00;0.62;;;;;23.20;1.00;;;;;;2275624;61;1087;-86
2021/08/20 02:39:33;0.00;0.00;0.62;0.00;0.00;0.62;;;;;23.30;1.00;;;;;;2275797;61;1934;-85
2021/08/20 02:42:00;71084.00;0.24;123.63;0.00;0.00;0.62;;;;;23.00;1.00;;;;;;2275113;61;1233;-86
2021/08/20 02:44:27;0.00;0.00;0.62;0.00;0.00;0.62;;;;;23.10;1.00;;;;;;2275328;61;1137;-86
2021/08/20 02:46:54;0.00;0.00;0.62;0.00;0.00;0.62;;;;;23.30;1.00;;;;;;2274991;61;1163;-86
2021/08/20 02:49:21;9592.00;0.03;17.24;0.00;0.00;0.62;;;;;23.30;1.00;;;;;;2275003;61;1065;-85
2021/08/20 02:51:49;0.00;0.00;0.62;0.00;0.00;0.62;;;;;22.90;1.00;;;;;;2274554;61;1364;-85
2021/08/20 02:54:16;0.00;0.00;0.62;0.00;0.00;0.62;;;;;22.20;1.00;;;;;;2275042;61;1312;-86
2021/08/20 02:56:43;0.00;0.00;0.62;0.00;0.00;0.62;;;;;22.30;1.00;;;;;;2274905;61;1122;-86
2021/08/20 02:59:10;0.00;0.00;0.62;0.00;0.00;0.62;;;;;22.40;1.00;;;;;;2274675;61;1937;-85
2021/08/20 03:01:37;0.00;0.00;0.62;0.00;0.00;0.62;;;;;22.50;1.00;;;;;;2275022;61;1163;-86
2021/08/20 03:04:04;75832.00;0.25;131.84;0.00;0.00;0.62;;;;;22.30;1.00;;;;;;2274474;61;1352;-86
2021/08/20 03:06:32;71489.00;0.24;124.33;0.00;0.00;0.62;;;;;22.30;1.00;;;;;;2275228;61;999;-85
2021/08/20 03:09:00;0.00;0.00;0.62;0.00;0.00;0.62;;;;;22.50;1.00;;;;;;2274943;61;1070;-86
2021/08/20 03:11:27;74365.00;0.25;129.30;0.00;0.00;0.62;;;;;22.60;1.00;;;;;;2275662;61;1168;-85
2021/08/20 03:13:54;42651.00;0.14;74.47;0.00;0.00;0.62;;;;;22.50;1.00;;;;;;2275402;61;1338;-86
2021/08/20 03:16:21;66332.00;0.22;115.42;0.00;0.00;0.62;;;;;22.30;1.00;;;;;;2275039;61;1788;-86
2021/08/20 03:18:48;44892.00;0.15;78.35;0.00;0.00;0.62;;;;;22.40;1.00;;;;;;2275660;61;2018;-86
2021/08/20 03:21:15;0.00;0.00;0.62;0.00;0.00;0.62;;;;;22.40;1.00;;;;;;2275329;61;1255;-86
2021/08/20 03:23:42;0.00;0.00;0.62;0.00;0.00;0.62;;;;;22.60;1.00;;;;;;2275360;61;1273;-85
2021/08/20 03:26:10;135131.00;0.45;234.18;0.00;0.00;0.62;;;;;22.80;1.00;;;;;;2274825;61;1168;-86
2021/08/20 03:28:37;11127.00;0.04;19.90;0.00;0.00;0.62;;;;;22.90;1.00;;;;;;2275270;61;1247;-86
2021/08/20 03:31:04;59333.00;0.20;103.32;0.00;0.00;0.62;;;;;23.10;1.00;;;;;;2274729;61;1171;-85
2021/08/20 03:33:30;0.00;0.00;0.62;0.00;0.00;0.62;;;;;23.00;1.00;;;;;;2275283;61;1320;-86
2021/08/20 03:35:57;93283.00;0.31;161.98;19424.00;0.06;34.27;;;;;22.90;1.00;;;;;;2275466;61;1223;-86
2021/08/20 03:38:24;0.00;0.00;0.62;0.00;0.00;0.62;;;;;23.10;1.00;;;;;;2275018;61;2015;-85
2021/08/20 03:40:51;0.00;0.00;0.62;0.00;0.00;0.62;;;;;23.30;1.00;;;;;;2272737;61;1163;-85
2021/08/20 03:43:19;3169.00;0.01;6.11;0.00;0.00;0.62;;;;;23.30;1.00;;;;;;2272768;61;1351;-85
2021/08/20 03:45:46;16809.00;0.06;29.74;0.00;0.00;0.62;;;;;23.50;1.00;;;;;;2273339;61;1134;-85
2021/08/20 03:48:13;113601.00;0.38;197.04;9357.00;0.03;16.84;;;;;23.50;1.00;;;;;;2273069;61;1124;-84
2021/08/20 03:50:40;109675.00;0.37;190.27;42606.00;0.14;74.40;;;;;23.30;1.00;;;;;;2272676;61;1121;-85
2021/08/20 03:53:07;182979.00;0.61;316.62;41586.00;0.14;72.63;;;;;23.30;1.00;;;;;;2272908;61;1376;-85
2021/08/20 03:55:34;0.00;0.00;0.62;0.00;0.00;0.62;;;;;23.10;1.00;;;;;;2272757;61;1175;-85
2021/08/20 03:58:01;0.00;0.00;0.62;0.00;0.00;0.62;;;;;23.20;1.00;;;;;;2272341;61;1247;-85
2021/08/20 04:00:29;19240.00;0.06;33.95;0.00;0.00;0.62;;;;;23.20;1.00;;;;;;2272531;61;1940;-85
2021/08/20 04:02:56;0.00;0.00;0.62;0.00;0.00;0.62;;;;;23.10;1.00;;;;;;2272442;61;1280;-85
2021/08/20 04:05:23;0.00;0.00;0.62;0.00;0.00;0.62;;;;;23.10;1.00;;;;;;2272534;61;1126;-85
2021/08/20 04:07:50;0.00;0.00;0.62;0.00;0.00;0.62;;;;;23.30;1.00;;;;;;2272323;61;1171;-85
2021/08/20 04:10:17;219154.00;0.73;378.89;78536.00;0.26;136.51;;;;;23.20;1.00;;;;;;2254621;61;1146314;-85
2021/08/20 04:12:44;0.00;0.00;0.62;0.00;0.00;0.62;;;;;23.30;1.00;;;;;;2272914;61;1368;-85
2021/08/20 04:15:11;0.00;0.00;0.62;0.00;0.00;0.62;;;;;23.30;1.00;;;;;;2273128;61;1076;-85
2021/08/20 04:17:39;0.00;0.00;0.62;0.00;0.00;0.62;;;;;23.20;1.00;;;;;;2272662;61;1107;-84
2021/08/20 04:20:07;0.00;0.00;0.62;0.00;0.00;0.62;;;;;23.10;1.00;;;;;;2273018;61;2004;-85
2021/08/20 04:22:35;70517.00;0.24;122.65;0.00;0.00;0.62;;;;;23.20;1.00;;;;;;2272886;61;1324;-85
2021/08/20 04:25:02;0.00;0.00;0.62;0.00;0.00;0.62;;;;;23.20;1.00;;;;;;2273079;61;1449;-85
2021/08/20 04:27:29;0.00;0.00;0.62;0.00;0.00;0.62;;;;;23.40;1.00;;;;;;2273439;61;1163;-85
2021/08/20 04:29:56;0.00;0.00;0.62;0.00;0.00;0.62;;;;;23.30;1.00;;;;;;2273328;61;1109;-85
2021/08/20 04:32:23;0.00;0.00;0.62;0.00;0.00;0.62;;;;;23.40;1.00;;;;;;2272833;61;1371;-85
2021/08/20 04:34:51;0.00;0.00;0.62;0.00;0.00;0.62;;;;;23.40;1.00;;;;;;2273141;61;1164;-85
2021/08/20 04:37:20;0.00;0.00;0.62;0.00;0.00;0.62;;;;;23.40;1.00;;;;;;2272869;61;1136;-85
2021/08/20 04:39:46;0.00;0.00;0.62;0.00;0.00;0.62;;;;;23.40;1.00;;;;;;2273068;61;2021;-85
2021/08/20 04:42:13;53975.00;0.18;94.06;0.00;0.00;0.62;;;;;23.40;1.00;;;;;;2273007;61;1295;-85
2021/08/20 04:44:40;0.00;0.00;0.62;0.00;0.00;0.62;;;;;23.70;1.00;;;;;;2272783;61;1170;-85
2021/08/20 04:47:09;0.00;0.00;0.62;0.00;0.00;0.62;;;;;23.80;1.00;;;;;;2272863;61;1140;-85
2021/08/20 04:49:36;0.00;0.00;0.62;0.00;0.00;0.62;;;;;23.40;1.00;;;;;;2277263;61;1196;-85
2021/08/20 04:52:05;0.00;0.00;0.62;0.00;0.00;0.62;;;;;23.30;1.00;;;;;;2279734;61;1754;-85
2021/08/20 04:54:32;20422.00;0.07;36.00;0.00;0.00;0.62;;;;;23.30;1.00;;;;;;2275145;61;1121;-85
2021/08/20 04:56:59;15963.00;0.05;28.28;0.00;0.00;0.62;;;;;23.20;1.00;;;;;;2272883;61;1750;-85
2021/08/20 04:59:25;0.00;0.00;0.62;0.00;0.00;0.62;;;;;23.30;1.00;;;;;;2272425;61;1937;-86
2021/08/20 05:01:52;0.00;0.00;0.62;0.00;0.00;0.62;;;;;23.70;1.00;;;;;;2272159;61;1379;-85
2021/08/20 05:04:19;0.00;0.00;0.62;0.00;0.00;0.62;;;;;23.80;1.00;;;;;;2272319;61;1073;-85
2021/08/20 05:06:46;0.00;0.00;0.62;0.00;0.00;0.62;;;;;23.70;1.00;;;;;;2272575;61;1171;-85
2021/08/20 05:09:14;194652.00;0.65;336.72;56415.00;0.19;98.28;;;;;23.80;1.00;;;;;;2272298;61;1187;-85
2021/08/20 05:11:41;0.00;0.00;0.62;0.00;0.00;0.62;;;;;24.10;1.00;;;;;;2272693;61;1147;-85
2021/08/20 05:14:08;30287.00;0.10;53.08;0.00;0.00;0.62;;;;;24.20;1.00;;;;;;2272479;61;1359;-83
2021/08/20 05:16:35;0.00;0.00;0.62;0.00;0.00;0.62;;;;;24.10;1.00;;;;;;2272708;61;1108;-85
2021/08/20 05:19:02;23137.00;0.08;40.70;0.00;0.00;0.62;;;;;24.10;1.00;;;;;;2272383;61;1923;-85
2021/08/20 05:21:29;0.00;0.00;0.62;0.00;0.00;0.62;;;;;24.00;1.00;;;;;;2272208;61;1155;-85
2021/08/20 05:23:56;39147.00;0.13;68.41;0.00;0.00;0.62;;;;;23.90;1.00;;;;;;2272302;61;1253;-85
2021/08/20 05:26:25;0.00;0.00;0.62;0.00;0.00;0.62;;;;;23.80;1.00;;;;;;2272351;61;1093;-85
2021/08/20 05:28:52;64162.00;0.21;111.67;0.00;0.00;0.62;;;;;23.80;1.00;;;;;;2272283;61;1677;-85
2021/08/20 05:31:19;67042.00;0.22;116.65;0.00;0.00;0.62;;;;;23.70;1.00;;;;;;2272800;61;1082;-85
2021/08/20 05:33:46;0.00;0.00;0.62;0.00;0.00;0.62;;;;;23.70;1.00;;;;;;2273208;61;1308;-85
2021/08/20 05:36:13;0.00;0.00;0.62;0.00;0.00;0.62;;;;;23.50;1.00;;;;;;2273198;61;1121;-85
2021/08/20 05:38:40;0.00;0.00;0.62;0.00;0.00;0.62;;;;;23.60;1.00;;;;;;2273217;61;1154;-85
2021/08/20 05:41:06;145319.00;0.48;251.74;0.00;0.00;0.62;;;;;23.80;1.00;;;;;;2273130;61;2042;-84
2021/08/20 05:43:35;35372.00;0.12;61.88;0.00;0.00;0.62;;;;;23.70;1.00;;;;;;2273991;61;1662;-84
2021/08/20 05:46:02;0.00;0.00;0.62;0.00;0.00;0.62;;;;;23.70;1.00;;;;;;2273350;61;1127;-84
2021/08/20 05:48:29;7662.00;0.03;13.90;0.00;0.00;0.62;;;;;23.60;1.00;;;;;;2274597;61;1187;-84
2021/08/20 05:50:56;0.00;0.00;0.62;0.00;0.00;0.62;;;;;23.90;1.00;;;;;;2276638;61;1149;-83
2021/08/20 05:53:23;0.00;0.00;0.62;0.00;0.00;0.62;;;;;24.00;1.00;;;;;;2275491;61;1659;-84
2021/08/20 05:55:50;0.00;0.00;0.62;0.00;0.00;0.62;;;;;24.10;1.00;;;;;;2274732;61;1094;-84
2021/08/20 05:58:17;0.00;0.00;0.62;0.00;0.00;0.62;;;;;24.20;1.00;;;;;;2274826;61;1179;-86
2021/08/20 06:00:48;29729.00;0.10;52.11;0.00;0.00;0.62;;;;;24.30;1.00;;;;;;2274515;61;2024;-86
2021/08/20 06:03:21;0.00;0.00;0.62;0.00;0.00;0.62;;;;;24.10;1.00;;;;;;2274669;61;1515;-84
2021/08/20 06:05:47;0.00;0.00;0.62;0.00;0.00;0.62;;;;;24.40;1.00;;;;;;2274393;61;1120;-84
2021/08/20 06:08:14;21254.00;0.07;37.44;0.00;0.00;0.62;;;;;24.70;1.00;;;;;;2274482;61;1165;-84
2021/08/20 06:10:44;11324.00;0.04;20.24;0.00;0.00;0.62;;;;;25.20;1.00;;;;;;2274622;61;1175;-84
2021/08/20 06:13:11;0.00;0.00;0.62;0.00;0.00;0.62;;;;;25.60;1.00;;;;;;2274476;61;1356;-84
2021/08/20 06:15:38;0.00;0.00;0.62;0.00;0.00;0.62;;;;;25.80;1.00;;;;;;2274270;61;1151;-84
2021/08/20 06:18:06;0.00;0.00;0.62;0.00;0.00;0.62;;;;;26.00;1.00;;;;;;2274657;61;1211;-84
2021/08/20 06:20:33;0.00;0.00;0.62;0.00;0.00;0.62;;;;;26.00;1.00;;;;;;2274213;61;2022;-84
2021/08/20 06:23:00;0.00;0.00;0.62;0.00;0.00;0.62;;;;;26.10;1.00;;;;;;2274024;61;1268;-84
2021/08/20 06:25:27;102146.00;0.34;177.28;20998.00;0.07;37.00;;;;;26.30;1.00;;;;;;2274100;61;1112;-84
2021/08/20 06:27:54;0.00;0.00;0.62;0.00;0.00;0.62;;;;;26.40;1.00;;;;;;2275130;61;1221;-84
2021/08/20 06:30:20;196483.00;0.65;339.87;57215.00;0.19;99.66;;;;;27.70;1.00;;;;;;2275123;61;1139;-87
2021/08/20 06:32:47;0.00;0.00;0.62;0.00;0.00;0.62;;;;;28.50;1.00;;;;;;2274918;61;1357;-87
2021/08/20 06:35:15;11200.00;0.04;20.03;0.00;0.00;0.62;;;;;28.40;1.00;;;;;;2275108;61;1236;-85
2021/08/20 06:37:42;0.00;0.00;0.62;0.00;0.00;0.62;;;;;27.90;1.00;;;;;;2275301;61;1089;-84
2021/08/20 06:40:11;0.00;0.00;0.62;0.00;0.00;0.62;;;;;28.00;1.00;;;;;;2274609;61;1939;-85
2021/08/20 06:42:37;0.00;0.00;0.62;0.00;0.00;0.62;;;;;28.20;1.00;;;;;;2275207;61;1272;-86
2021/08/20 06:45:05;53954.00;0.18;94.02;0.00;0.00;0.62;;;;;28.70;1.00;;;;;;2276898;61;1128;-86
2021/08/20 06:47:32;53362.00;0.18;93.00;0.00;0.00;0.62;;;;;29.20;1.00;;;;;;2276166;61;1186;-87
2021/08/20 06:49:59;0.00;0.00;0.62;0.00;0.00;0.62;;;;;29.80;1.00;;;;;;2276299;61;1667;-87
2021/08/20 06:52:28;0.00;0.00;0.62;0.00;0.00;0.62;;;;;30.10;1.00;;;;;;2276214;61;1408;-87
2021/08/20 06:54:58;0.00;0.00;0.62;0.00;0.00;0.62;;;;;30.50;1.00;;;;;;2276547;61;1178;-87
2021/08/20 06:57:25;71775.00;0.24;124.83;0.00;0.00;0.62;;;;;30.60;1.00;;;;;;2276741;61;1177;-88
2021/08/20 06:59:52;0.00;0.00;0.62;0.00;0.00;0.62;;;;;30.60;1.00;;;;;;2275859;61;2012;-87
2021/08/20 07:02:19;0.00;0.00;0.62;0.00;0.00;0.62;;;;;30.90;1.00;;;;;;2276973;61;1368;-86
2021/08/20 07:04:46;34790.00;0.12;60.87;0.00;0.00;0.62;;;;;32.00;1.00;;;;;;2277159;61;1060;-86
2021/08/20 07:07:13;138452.00;0.46;239.90;0.00;0.00;0.62;;;;;32.60;1.00;;;;;;2278097;61;1190;-86
2021/08/20 07:09:41;9956.00;0.03;17.87;0.00;0.00;0.62;;;;;33.00;1.00;;;;;;2276821;61;1163;-86
2021/08/20 07:12:09;0.00;0.00;0.62;0.00;0.00;0.62;;;;;32.10;1.00;;;;;;2276488;61;1365;-87
2021/08/20 07:14:35;0.00;0.00;0.62;0.00;0.00;0.62;;;;;31.90;1.00;;;;;;2276533;61;1299;-86
2021/08/20 07:17:03;0.00;0.00;0.62;0.00;0.00;0.62;;;;;32.20;1.00;;;;;;2275802;61;1132;-83
2021/08/20 07:19:29;0.00;0.00;0.62;0.00;0.00;0.62;;;;;32.90;1.00;;;;;;2276461;61;2002;-85
2021/08/20 07:21:56;0.00;0.00;0.62;0.00;0.00;0.62;;;;;32.80;1.00;;;;;;2276496;61;1281;-85
2021/08/20 07:24:23;0.00;0.00;0.62;0.00;0.00;0.62;;;;;32.50;1.00;;;;;;2276832;61;1156;-86
2021/08/20 07:26:51;550.00;0.00;1.57;0.00;0.00;0.62;;;;;32.10;1.00;;;;;;2276921;61;1232;-86
2021/08/20 07:29:18;0.00;0.00;0.62;0.00;0.00;0.62;;;;;31.70;1.00;;;;;;2277201;61;1137;-87
2021/08/20 07:31:45;0.00;0.00;0.62;0.00;0.00;0.62;;;;;31.70;1.00;;;;;;2277799;61;1205;-86
2021/08/20 07:34:12;0.00;0.00;0.62;0.00;0.00;0.62;;;;;32.00;1.00;;;;;;2277066;61;1644;-83
2021/08/20 07:36:39;33813.00;0.11;59.18;0.00;0.00;0.62;;;;;32.50;1.00;;;;;;2275468;61;1117;-85
2021/08/20 07:39:06;0.00;0.00;0.62;0.00;0.00;0.62;;;;;33.00;1.00;;;;;;2276446;61;1158;-85
2021/08/20 07:41:33;124986.00;0.42;216.68;0.00;0.00;0.62;;;;;33.80;1.00;;;;;;2276403;61;2009;-85
2021/08/20 07:44:01;0.00;0.00;0.62;0.00;0.00;0.62;;;;;34.70;1.00;;;;;;2277942;61;1264;-86
2021/08/20 07:46:28;29480.00;0.10;51.68;0.00;0.00;0.62;;;;;34.90;1.00;;;;;;2280567;61;1058;-87
2021/08/20 07:48:55;0.00;0.00;0.62;0.00;0.00;0.62;;;;;34.80;1.00;;;;;;2278650;61;1105;-87
2021/08/20 07:51:21;0.00;0.00;0.62;0.00;0.00;0.62;;;;;35.30;1.00;;;;;;2277325;61;1143;-86
2021/08/20 07:53:48;48055.00;0.16;83.82;0.00;0.00;0.62;;;;;34.70;1.00;;;;;;2276921;61;1337;-86
2021/08/20 07:56:15;11736.00;0.04;20.96;0.00;0.00;0.62;;;;;34.00;1.00;;;;;;2276900;61;1100;-86
2021/08/20 07:58:42;0.00;0.00;0.62;0.00;0.00;0.62;;;;;34.50;1.00;;;;;;2277229;61;1099;-86
2021/08/20 08:01:11;0.00;0.00;0.62;0.00;0.00;0.62;;;;;34.30;1.00;;;;;;2277081;61;1996;-86
2021/08/20 08:03:38;0.00;0.00;0.62;0.00;0.00;0.62;;;;;34.00;1.00;;;;;;2277069;61;1339;-85
2021/08/20 08:06:05;0.00;0.00;0.62;0.00;0.00;0.62;;;;;34.40;1.00;;;;;;2273766;61;1041;-86
2021/08/20 08:08:32;6571.00;0.02;12.01;0.00;0.00;0.62;;;;;35.10;1.00;;;;;;2277579;61;1049;-86
2021/08/20 08:10:59;0.00;0.00;0.62;0.00;0.00;0.62;;;;;34.70;1.00;;;;;;2270826;61;1183;-86
2021/08/20 08:13:26;0.00;0.00;0.62;0.00;0.00;0.62;;;;;33.90;1.00;;;;;;2277380;61;1266;-86
2021/08/20 08:15:53;0.00;0.00;0.62;0.00;0.00;0.62;;;;;33.20;1.00;;;;;;2277369;61;1160;-86
2021/08/20 08:18:21;0.00;0.00;0.62;0.00;0.00;0.62;;;;;32.70;1.00;;;;;;2275070;61;1248;-87
2021/08/20 08:20:48;191612.00;0.64;331.48;45733.00;0.15;79.81;;;;;32.90;1.00;;;;;;2277783;61;1996;-86
2021/08/20 08:23:15;0.00;0.00;0.62;0.00;0.00;0.62;;;;;32.70;1.00;;;;;;2277137;61;1351;-86
2021/08/20 08:25:42;117129.00;0.39;203.13;35342.00;0.12;61.83;;;;;32.60;1.00;;;;;;2272939;61;1065;-86
2021/08/20 08:28:09;0.00;0.00;0.62;0.00;0.00;0.62;;;;;32.50;1.00;;;;;;2275123;61;1329;-86
2021/08/20 08:30:38;0.00;0.00;0.62;0.00;0.00;0.62;;;;;32.60;1.00;;;;;;2276397;61;1171;-86
2021/08/20 08:33:07;53827.00;0.18;93.80;0.00;0.00;0.62;;;;;32.70;1.00;;;;;;2277433;61;1436;-86
2021/08/20 08:35:35;0.00;0.00;0.62;0.00;0.00;0.62;;;;;32.70;1.00;;;;;;2276424;61;1271;-87
2021/08/20 08:38:05;65659.00;0.22;114.26;0.00;0.00;0.62;;;;;32.50;1.00;;;;;;2277628;61;1052;-88
2021/08/20 08:40:32;0.00;0.00;0.62;0.00;0.00;0.62;;;;;32.30;1.00;;;;;;2279992;61;1992;-87
2021/08/20 08:42:59;102623.00;0.34;178.10;0.00;0.00;0.62;;;;;31.50;1.00;;;;;;2279440;61;1439;-87
2021/08/20 08:45:26;69868.00;0.23;121.53;0.00;0.00;0.62;;;;;31.30;1.00;;;;;;2278393;61;1259;-86
2021/08/20 08:47:55;0.00;0.00;0.62;0.00;0.00;0.62;;;;;31.20;1.00;;;;;;2278475;61;1121;-87
2021/08/20 08:50:23;0.00;0.00;0.62;0.00;0.00;0.62;;;;;31.30;1.00;;;;;;2277676;61;1148;-87
2021/08/20 08:52:51;0.00;0.00;0.62;0.00;0.00;0.62;;;;;31.20;1.00;;;;;;2271591;61;1419;-88
2021/08/20 08:55:18;0.00;0.00;0.62;0.00;0.00;0.62;;;;;31.20;1.00;;;;;;2279198;61;1183;-87
2021/08/20 08:57:45;257158.00;0.86;444.26;100567.00;0.34;174.55;;;;;30.50;1.00;;;;;;2274644;61;1149;-87
2021/08/20 09:00:13;34016.00;0.11;59.53;0.00;0.00;0.62;;;;;30.70;1.00;;;;;;2271093;61;1920;-88
2021/08/20 09:02:40;75659.00;0.25;131.54;0.00;0.00;0.62;;;;;30.60;1.00;;;;;;2274098;61;1375;-88
2021/08/20 09:05:11;0.00;0.00;0.62;0.00;0.00;0.62;;;;;30.60;1.00;;;;;;2275788;61;956;-89
2021/08/20 09:07:39;0.00;0.00;0.62;0.00;0.00;0.62;;;;;30.80;1.00;;;;;;2272724;61;1126;-89
2021/08/20 09:10:28;0.00;0.00;0.62;0.00;0.00;0.62;;;;;31.30;1.00;;;;;;2269598;61;1084;-89
2021/08/20 09:12:57;70571.00;0.24;122.75;0.00;0.00;0.62;;;;;30.60;1.00;;;;;;2264997;61;1437;-90
2021/08/20 09:15:27;33620.00;0.11;58.85;0.00;0.00;0.62;;;;;30.10;1.00;;;;;;2267078;61;1026;-89
2021/08/20 09:17:55;0.00;0.00;0.62;0.00;0.00;0.62;;;;;30.00;1.00;;;;;;2273086;61;996;-91
2021/08/20 09:20:25;812.00;0.00;2.03;0.00;0.00;0.62;;;;;30.20;1.00;;;;;;2269677;61;2010;-91
2021/08/20 09:22:55;0.00;0.00;0.62;0.00;0.00;0.62;;;;;30.80;1.00;;;;;;2273010;61;1371;-91
2021/08/20 09:25:32;14967.00;0.05;26.55;0.00;0.00;0.62;;;;;30.60;1.00;;;;;;2276491;61;977;-90
2021/08/20 09:28:24;9465.00;0.03;17.02;0.00;0.00;0.62;;;;;30.50;1.00;;;;;;2272452;61;990;-89
2021/08/20 09:31:06;54582.00;0.18;95.11;0.00;0.00;0.62;;;;;30.40;1.00;;;;;;2273219;61;1557;-91
2021/08/20 09:33:35;68961.00;0.23;119.96;0.00;0.00;0.62;;;;;30.60;1.00;;;;;;2272939;61;1431;-89
2021/08/20 09:36:05;0.00;0.00;0.62;0.00;0.00;0.62;;;;;30.60;1.00;;;;;;2266342;61;1013;-89
2021/08/20 09:38:34;11109.00;0.04;19.87;0.00;0.00;0.62;;;;;30.10;1.00;;;;;;2269706;61;1073;-89
2021/08/20 09:41:05;444.00;0.00;1.39;0.00;0.00;0.62;;;;;29.80;1.00;;;;;;2276251;61;1992;-89
2021/08/20 09:43:34;0.00;0.00;0.62;0.00;0.00;0.62;;;;;29.80;1.00;;;;;;2272859;61;1324;-89
2021/08/20 09:46:05;0.00;0.00;0.62;0.00;0.00;0.62;;;;;30.10;1.00;;;;;;2269668;61;958;-89
2021/08/20 09:48:45;30286.00;0.10;53.08;0.00;0.00;0.62;;;;;30.20;1.00;;;;;;2268204;61;975;-89
2021/08/20 09:51:39;296.00;0.00;1.13;0.00;0.00;0.62;;;;;29.80;1.00;;;;;;2272941;61;987;-90
2021/08/20 09:54:09;10551.00;0.04;18.90;0.00;0.00;0.62;;;;;29.30;1.00;;;;;;2276400;61;1485;-87
2021/08/20 09:56:37;73598.00;0.25;127.98;0.00;0.00;0.62;;;;;29.20;1.00;;;;;;2271788;61;1037;-90
2021/08/20 09:59:06;0.00;0.00;0.62;0.00;0.00;0.62;;;;;29.40;1.00;;;;;;2262109;61;1019;-89
2021/08/20 10:01:35;95502.00;0.32;165.81;0.00;0.00;0.62;;;;;29.60;1.00;;;;;;2272271;61;1929;-85
2021/08/20 10:04:03;60031.00;0.20;104.53;0.00;0.00;0.62;;;;;29.40;1.00;;;;;;2272086;61;1369;-88
2021/08/20 10:06:32;83681.00;0.28;145.40;0.00;0.00;0.62;;;;;29.50;1.00;;;;;;2265815;61;1003;-86
2021/08/20 10:09:04;55925.00;0.19;97.43;0.00;0.00;0.62;;;;;29.40;1.00;;;;;;2280341;61;1144;-86
2021/08/20 10:11:35;53382.00;0.18;93.03;0.00;0.00;0.62;;;;;29.20;1.00;;;;;;2279778;61;1168;-87
2021/08/20 10:14:05;34423.00;0.11;60.24;0.00;0.00;0.62;;;;;29.30;1.00;;;;;;2270055;61;1289;-86
2021/08/20 10:16:33;14670.00;0.05;26.04;0.00;0.00;0.62;;;;;29.60;1.00;;;;;;2280680;61;1136;-89
2021/08/20 10:19:02;0.00;0.00;0.62;0.00;0.00;0.62;;;;;29.60;1.00;;;;;;2280289;61;1144;-89
2021/08/20 10:21:31;5747.00;0.02;10.58;0.00;0.00;0.62;;;;;30.10;1.00;;;;;;2280879;61;1918;-88
2021/08/20 10:23:58;12083.00;0.04;21.56;0.00;0.00;0.62;;;;;30.00;1.00;;;;;;2280875;61;1453;-88
2021/08/20 10:26:26;0.00;0.00;0.62;0.00;0.00;0.62;;;;;29.80;1.00;;;;;;2280296;61;955;-88